createdAt,value
2019-03-03T00:02:11.199Z,2.80
2019-03-03T00:04:44.991Z,2.80
2019-03-03T00:07:14.770Z,2.80
2019-03-03T00:09:45.431Z,2.80
2019-03-03T00:12:16.043Z,2.80
2019-03-03T00:14:46.034Z,2.80
2019-03-03T00:17:16.433Z,2.80
2019-03-03T00:19:50.818Z,2.80
2019-03-03T00:22:24.898Z,2.80
2019-03-03T00:24:55.172Z,2.80
2019-03-03T00:27:26.235Z,2.80
2019-03-03T00:29:56.206Z,2.80
2019-03-03T00:32:26.916Z,2.80
2019-03-03T00:34:56.843Z,2.80
2019-03-03T00:37:37.443Z,2.90
2019-03-03T00:40:25.955Z,2.80
2019-03-03T00:43:02.947Z,2.80
2019-03-03T00:45:55.167Z,2.80
2019-03-03T00:48:33.391Z,2.80
2019-03-03T00:51:25.415Z,2.90
2019-03-03T00:54:09.579Z,2.90
2019-03-03T00:57:01.325Z,2.90
2019-03-03T00:59:39.158Z,2.90
2019-03-03T01:02:36.287Z,2.90
2019-03-03T01:05:36.483Z,2.90
2019-03-03T01:08:34.089Z,2.90
2019-03-03T01:11:34.902Z,2.90
2019-03-03T01:14:26.921Z,2.90
2019-03-03T01:17:16.380Z,2.90
2019-03-03T01:19:58.911Z,2.90
2019-03-03T01:22:38.663Z,3.00
2019-03-03T01:25:12.831Z,3.00
2019-03-03T01:27:48.606Z,3.00
2019-03-03T01:30:22.478Z,2.90
2019-03-03T01:32:56.391Z,2.90
2019-03-03T01:35:29.123Z,2.90
2019-03-03T01:38:02.451Z,2.90
2019-03-03T01:40:35.811Z,2.90
2019-03-03T01:43:09.512Z,2.90
2019-03-03T01:45:41.763Z,2.90
2019-03-03T01:48:12.877Z,2.80
2019-03-03T01:50:46.532Z,2.80
2019-03-03T01:53:18.857Z,2.80
2019-03-03T01:55:53.470Z,2.80
2019-03-03T01:58:26.174Z,2.70
2019-03-03T02:00:59.363Z,2.70
2019-03-03T02:03:34.723Z,2.60
2019-03-03T02:06:10.506Z,2.60
2019-03-03T02:08:44.639Z,2.60
2019-03-03T02:11:15.895Z,2.60
2019-03-03T02:13:50.031Z,2.60
2019-03-03T02:16:23.715Z,2.70
2019-03-03T02:18:53.986Z,2.70
2019-03-03T02:21:23.650Z,2.70
2019-03-03T02:23:56.575Z,2.70
2019-03-03T02:26:31.323Z,2.70
2019-03-03T02:29:05.674Z,2.70
2019-03-03T02:31:38.431Z,2.70
2019-03-03T02:34:11.424Z,2.70
2019-03-03T02:36:46.215Z,2.70
2019-03-03T02:39:22.306Z,2.70
2019-03-03T02:41:54.726Z,2.70
2019-03-03T02:44:26.942Z,2.70
2019-03-03T02:46:56.677Z,2.70
2019-03-03T02:49:27.008Z,2.60
2019-03-03T02:51:57.364Z,2.60
2019-03-03T02:54:31.234Z,2.60
2019-03-03T02:57:05.991Z,2.60
2019-03-03T02:59:37.813Z,2.60
2019-03-03T03:02:16.536Z,2.70
2019-03-03T03:04:50.271Z,2.70
2019-03-03T03:07:38.677Z,2.70
2019-03-03T03:10:16.451Z,2.70
2019-03-03T03:13:13.328Z,2.70
2019-03-03T03:16:02.328Z,2.70
2019-03-03T03:19:07.406Z,2.70
2019-03-03T03:21:49.443Z,2.70
2019-03-03T03:24:38.917Z,2.70
2019-03-03T03:27:18.144Z,2.70
2019-03-03T03:30:02.634Z,2.70
2019-03-03T03:32:43.456Z,2.60
2019-03-03T03:35:34.034Z,2.70
2019-03-03T03:38:34.187Z,2.70
2019-03-03T03:41:22.923Z,2.70
2019-03-03T03:44:10.412Z,2.70
2019-03-03T03:46:49.638Z,2.70
2019-03-03T03:49:42.143Z,2.70
2019-03-03T03:52:33.963Z,2.70
2019-03-03T03:55:24.543Z,2.70
2019-03-03T03:58:18.020Z,2.70
2019-03-03T04:01:18.087Z,2.70
2019-03-03T04:04:07.311Z,2.70
2019-03-03T04:07:03.547Z,2.70
2019-03-03T04:09:44.732Z,2.70
2019-03-03T04:12:37.651Z,2.70
2019-03-03T04:15:32.997Z,2.70
2019-03-03T04:18:14.668Z,2.70
2019-03-03T04:21:01.820Z,2.70
2019-03-03T04:24:00.935Z,2.70
2019-03-03T04:26:45.563Z,2.70
2019-03-03T04:29:35.306Z,2.60
2019-03-03T04:32:31.394Z,2.60
2019-03-03T04:35:29.642Z,2.60
2019-03-03T04:38:24.358Z,2.60
2019-03-03T04:41:14.671Z,2.60
2019-03-03T04:44:10.143Z,2.60
2019-03-03T04:47:02.901Z,2.60
2019-03-03T04:49:43.262Z,2.60
2019-03-03T04:52:33.591Z,2.60
2019-03-03T04:55:22.923Z,2.60
2019-03-03T04:58:05.215Z,2.50
2019-03-03T05:00:49.919Z,2.50
2019-03-03T05:03:40.745Z,2.40
2019-03-03T05:06:24.523Z,2.40
2019-03-03T05:09:13.152Z,2.40
2019-03-03T05:12:35.083Z,2.30
2019-03-03T05:16:06.367Z,2.30
2019-03-03T05:19:33.687Z,2.40
2019-03-03T05:22:08.803Z,2.40
2019-03-03T05:24:41.026Z,2.30
2019-03-03T05:27:13.759Z,2.40
2019-03-03T05:29:47.355Z,2.40
2019-03-03T05:32:21.024Z,2.40
2019-03-03T05:34:54.751Z,2.50
2019-03-03T05:37:26.316Z,2.40
2019-03-03T05:39:59.107Z,2.30
2019-03-03T05:42:31.327Z,2.20
2019-03-03T05:45:05.983Z,2.20
2019-03-03T05:47:39.646Z,2.20
2019-03-03T05:50:13.531Z,2.20
2019-03-03T05:52:47.047Z,2.20
2019-03-03T05:55:29.547Z,2.10
2019-03-03T05:58:03.851Z,2.10
2019-03-03T06:00:36.831Z,2.00
2019-03-03T06:03:10.563Z,1.90
2019-03-03T06:05:42.508Z,1.90
2019-03-03T06:08:12.839Z,1.90
2019-03-03T06:10:45.750Z,1.80
2019-03-03T06:13:18.984Z,1.80
2019-03-03T06:15:51.266Z,1.90
2019-03-03T06:18:27.103Z,1.80
2019-03-03T06:21:01.275Z,1.80
2019-03-03T06:23:35.351Z,1.90
2019-03-03T06:26:05.326Z,1.80
2019-03-03T06:28:35.834Z,1.80
2019-03-03T06:31:06.206Z,1.90
2019-03-03T06:33:36.539Z,1.80
2019-03-03T06:36:06.234Z,1.80
2019-03-03T06:38:40.991Z,1.80
2019-03-03T06:41:15.459Z,1.70
2019-03-03T06:43:48.003Z,1.80
2019-03-03T06:46:21.731Z,1.70
2019-03-03T06:48:53.951Z,1.80
2019-03-03T06:51:27.585Z,1.70
2019-03-03T06:54:01.152Z,1.70
2019-03-03T06:56:32.235Z,1.70
2019-03-03T06:59:05.056Z,1.70
2019-03-03T07:01:39.839Z,1.70
2019-03-03T07:04:11.471Z,1.70
2019-03-03T07:06:41.487Z,1.80
2019-03-03T07:09:11.187Z,1.70
2019-03-03T07:11:42.095Z,1.70
2019-03-03T07:14:12.476Z,1.80
2019-03-03T07:16:43.171Z,1.80
2019-03-03T07:19:13.178Z,1.70
2019-03-03T07:21:45.357Z,1.70
2019-03-03T07:24:16.710Z,1.70
2019-03-03T07:26:49.695Z,1.70
2019-03-03T07:29:25.492Z,1.70
2019-03-03T07:32:00.167Z,1.70
2019-03-03T07:34:33.826Z,1.60
2019-03-03T07:37:07.941Z,1.60
2019-03-03T07:39:41.727Z,1.60
2019-03-03T07:42:16.671Z,1.60
2019-03-03T07:44:51.301Z,1.50
2019-03-03T07:47:24.128Z,1.60
2019-03-03T07:49:53.875Z,1.60
2019-03-03T07:52:24.128Z,1.50
2019-03-03T07:54:55.984Z,1.50
2019-03-03T07:57:29.087Z,1.50
2019-03-03T07:59:59.943Z,1.60
2019-03-03T08:02:30.295Z,1.60
2019-03-03T08:05:04.034Z,1.60
2019-03-03T08:07:38.624Z,1.60
2019-03-03T08:10:13.278Z,1.60
2019-03-03T08:12:46.051Z,1.70
2019-03-03T08:15:18.063Z,1.70
2019-03-03T08:17:49.194Z,1.70
2019-03-03T08:20:18.978Z,1.70
2019-03-03T08:22:50.219Z,1.70
2019-03-03T08:25:22.887Z,1.60
2019-03-03T08:27:56.641Z,1.60
2019-03-03T08:30:40.899Z,1.60
2019-03-03T08:33:10.286Z,1.60
2019-03-03T08:35:44.288Z,1.70
2019-03-03T08:38:17.279Z,1.70
2019-03-03T08:40:50.330Z,1.60
2019-03-03T08:43:29.214Z,1.60
2019-03-03T08:46:12.867Z,1.60
2019-03-03T08:48:53.950Z,1.60
2019-03-03T08:51:48.773Z,1.60
2019-03-03T08:54:47.148Z,1.60
2019-03-03T08:57:53.583Z,1.60
2019-03-03T09:00:51.583Z,1.70
2019-03-03T09:03:42.655Z,1.70
2019-03-03T09:06:28.315Z,1.70
2019-03-03T09:09:10.759Z,1.80
2019-03-03T09:11:52.516Z,1.80
2019-03-03T09:14:37.343Z,1.90
2019-03-03T09:17:25.507Z,1.90
2019-03-03T09:20:07.611Z,1.90
2019-03-03T09:22:49.633Z,1.80
2019-03-03T09:25:37.031Z,1.80
2019-03-03T09:28:27.503Z,1.90
2019-03-03T09:31:19.526Z,1.90
2019-03-03T09:34:13.505Z,2.00
2019-03-03T09:37:02.433Z,2.00
2019-03-03T09:40:09.664Z,2.10
2019-03-03T09:42:59.801Z,2.10
2019-03-03T09:45:53.355Z,2.10
2019-03-03T09:48:43.339Z,2.00
2019-03-03T09:51:27.809Z,2.00
2019-03-03T09:54:20.671Z,2.10
2019-03-03T09:57:22.503Z,2.00
2019-03-03T10:00:12.903Z,1.90
2019-03-03T10:03:03.870Z,2.00
2019-03-03T10:05:52.784Z,1.90
2019-03-03T10:08:49.360Z,2.00
2019-03-03T10:11:51.103Z,2.00
2019-03-03T10:14:39.267Z,2.00
2019-03-03T10:17:17.396Z,2.10
2019-03-03T10:20:08.927Z,2.00
2019-03-03T10:22:50.403Z,2.10
2019-03-03T10:25:39.979Z,2.10
2019-03-03T10:28:36.939Z,2.10
2019-03-03T10:31:36.607Z,2.10
2019-03-03T10:34:36.790Z,2.20
2019-03-03T10:37:28.511Z,2.20
2019-03-03T10:40:19.999Z,2.10
2019-03-03T10:43:13.171Z,2.20
2019-03-03T10:46:00.135Z,2.20
2019-03-03T10:48:53.691Z,2.20
2019-03-03T10:51:50.758Z,2.40
2019-03-03T10:54:38.867Z,2.30
2019-03-03T10:57:33.445Z,2.30
2019-03-03T11:00:22.559Z,2.40
2019-03-03T11:03:17.247Z,2.30
2019-03-03T11:06:15.235Z,2.30
2019-03-03T11:09:06.542Z,2.30
2019-03-03T11:11:58.272Z,2.20
2019-03-03T11:15:07.763Z,2.20
2019-03-03T11:18:04.447Z,2.20
2019-03-03T11:21:07.463Z,2.10
2019-03-03T11:23:51.419Z,2.10
2019-03-03T11:26:48.397Z,2.10
2019-03-03T11:29:33.563Z,2.10
2019-03-03T11:32:23.247Z,2.20
2019-03-03T11:35:07.871Z,2.20
2019-03-03T11:37:58.372Z,2.20
2019-03-03T11:40:42.459Z,2.10
2019-03-03T11:43:33.397Z,2.10
2019-03-03T11:46:13.484Z,2.10
2019-03-03T11:48:52.414Z,2.10
2019-03-03T11:51:36.679Z,2.10
2019-03-03T11:54:27.520Z,2.00
2019-03-03T11:57:29.912Z,2.00
2019-03-03T12:00:18.071Z,2.00
2019-03-03T12:03:24.929Z,1.90
2019-03-03T12:06:07.624Z,1.90
2019-03-03T12:08:56.139Z,1.80
2019-03-03T12:11:41.416Z,1.80
2019-03-03T12:14:25.714Z,1.70
2019-03-03T12:17:19.487Z,1.70
2019-03-03T12:19:59.616Z,1.70
2019-03-03T12:22:48.819Z,1.80
2019-03-03T12:25:32.160Z,1.80
2019-03-03T12:28:26.802Z,1.90
2019-03-03T12:31:15.307Z,1.90
2019-03-03T12:34:06.149Z,1.90
2019-03-03T12:36:49.960Z,1.90
2019-03-03T12:39:34.948Z,1.90
2019-03-03T12:42:40.047Z,2.00
2019-03-03T12:45:33.959Z,2.00
2019-03-03T12:48:26.923Z,2.00
2019-03-03T12:51:29.538Z,2.00
2019-03-03T12:54:30.208Z,1.90
2019-03-03T12:57:14.750Z,1.90
2019-03-03T13:00:11.552Z,1.90
2019-03-03T13:03:03.143Z,2.00
2019-03-03T13:05:47.231Z,2.00
2019-03-03T13:08:43.677Z,2.00
2019-03-03T13:11:35.995Z,2.00
2019-03-03T13:14:29.583Z,2.00
2019-03-03T13:17:27.560Z,2.10
2019-03-03T13:20:17.306Z,2.10
2019-03-03T13:22:58.731Z,2.20
2019-03-03T13:25:47.199Z,2.20
2019-03-03T13:28:39.491Z,2.30
2019-03-03T13:31:38.451Z,2.40
2019-03-03T13:34:24.394Z,2.50
2019-03-03T13:37:20.058Z,2.60
2019-03-03T13:40:24.222Z,2.80
2019-03-03T13:43:01.518Z,2.90
2019-03-03T13:45:36.130Z,3.00
2019-03-03T13:48:08.970Z,2.90
2019-03-03T13:50:42.730Z,2.80
2019-03-03T13:53:15.683Z,2.60
2019-03-03T13:55:51.390Z,2.60
2019-03-03T13:58:27.294Z,2.50
2019-03-03T14:01:01.056Z,2.50
2019-03-03T14:03:35.880Z,2.40
2019-03-03T14:06:09.060Z,2.30
2019-03-03T14:08:43.398Z,2.30
2019-03-03T14:11:13.906Z,2.20
2019-03-03T14:13:47.108Z,2.10
2019-03-03T14:16:21.600Z,2.20
2019-03-03T14:18:55.198Z,2.20
2019-03-03T14:21:30.046Z,2.30
2019-03-03T14:24:03.649Z,2.30
2019-03-03T14:26:36.192Z,2.30
2019-03-03T14:29:08.928Z,2.30
2019-03-03T14:31:41.631Z,2.20
2019-03-03T14:34:15.132Z,2.20
2019-03-03T14:36:50.179Z,2.20
2019-03-03T14:39:24.002Z,2.20
2019-03-03T14:41:57.963Z,2.30
2019-03-03T14:44:31.167Z,2.30
2019-03-03T14:47:05.983Z,2.40
2019-03-03T14:49:38.133Z,2.40
2019-03-03T14:52:12.798Z,2.40
2019-03-03T14:54:47.728Z,2.50
2019-03-03T14:57:20.571Z,2.50
2019-03-03T14:59:52.479Z,2.50
2019-03-03T15:02:26.207Z,2.50
2019-03-03T15:04:59.936Z,2.50
2019-03-03T15:07:33.759Z,2.50
2019-03-03T15:10:03.451Z,2.50
2019-03-03T15:12:34.383Z,2.40
2019-03-03T15:15:07.328Z,2.40
2019-03-03T15:17:37.362Z,2.30
2019-03-03T15:20:09.993Z,2.30
2019-03-03T15:22:42.887Z,2.20
2019-03-03T15:25:17.153Z,2.20
2019-03-03T15:27:49.503Z,2.10
2019-03-03T15:30:23.013Z,2.00
2019-03-03T15:32:56.197Z,2.00
2019-03-03T15:35:30.367Z,1.90
2019-03-03T15:38:04.735Z,1.80
2019-03-03T15:40:37.513Z,1.80
2019-03-03T15:43:10.051Z,1.80
2019-03-03T15:45:43.713Z,1.80
2019-03-03T15:48:14.706Z,1.70
2019-03-03T15:50:48.735Z,1.70
2019-03-03T15:53:22.534Z,1.70
2019-03-03T15:55:56.202Z,1.70
2019-03-03T15:58:30.250Z,1.70
2019-03-03T16:01:04.957Z,1.70
2019-03-03T16:03:38.759Z,1.70
2019-03-03T16:06:12.615Z,1.60
2019-03-03T16:08:44.899Z,1.60
2019-03-03T16:11:18.801Z,1.50
2019-03-03T16:13:53.768Z,1.50
2019-03-03T16:16:26.962Z,1.50
2019-03-03T16:19:01.607Z,1.50
2019-03-03T16:21:35.172Z,1.50
2019-03-03T16:24:08.660Z,1.50
2019-03-03T16:26:40.314Z,1.50
2019-03-03T16:29:10.026Z,1.50
2019-03-03T16:31:40.540Z,1.50
2019-03-03T16:34:12.831Z,1.50
2019-03-03T16:36:45.407Z,1.50
2019-03-03T16:39:16.280Z,1.50
2019-03-03T16:41:47.699Z,1.60
2019-03-03T16:44:19.886Z,1.60
2019-03-03T16:46:51.168Z,1.50
2019-03-03T16:49:21.716Z,1.50
2019-03-03T16:51:54.831Z,1.40
2019-03-03T16:54:27.063Z,1.50
2019-03-03T16:57:00.706Z,1.50
2019-03-03T16:59:35.550Z,1.50
2019-03-03T17:02:07.907Z,1.40
2019-03-03T17:04:41.985Z,1.40
2019-03-03T17:07:13.959Z,1.40
2019-03-03T17:09:47.763Z,1.40
2019-03-03T17:12:20.965Z,1.50
2019-03-03T17:14:54.687Z,1.40
2019-03-03T17:17:26.591Z,1.40
2019-03-03T17:19:56.223Z,1.40
2019-03-03T17:22:30.322Z,1.30
2019-03-03T17:25:06.587Z,1.30
2019-03-03T17:27:42.432Z,1.30
2019-03-03T17:30:17.440Z,1.30
2019-03-03T17:32:52.351Z,1.30
2019-03-03T17:35:24.655Z,1.30
2019-03-03T17:37:59.367Z,1.30
2019-03-03T17:40:31.156Z,1.30
2019-03-03T17:43:04.414Z,1.30
2019-03-03T17:45:36.543Z,1.30
2019-03-03T17:48:07.907Z,1.20
2019-03-03T17:50:38.033Z,1.20
2019-03-03T17:53:10.016Z,1.20
2019-03-03T17:55:42.975Z,1.20
2019-03-03T17:58:16.831Z,1.20
2019-03-03T18:00:49.856Z,1.30
2019-03-03T18:03:21.983Z,1.20
2019-03-03T18:05:55.725Z,1.20
2019-03-03T18:08:29.435Z,1.10
2019-03-03T18:11:04.187Z,1.10
2019-03-03T18:13:36.343Z,1.10
2019-03-03T18:16:07.680Z,1.10
2019-03-03T18:18:42.027Z,1.10
2019-03-03T18:21:15.711Z,1.20
2019-03-03T18:23:47.039Z,1.20
2019-03-03T18:26:17.622Z,1.20
2019-03-03T18:28:48.067Z,1.20
2019-03-03T18:31:18.668Z,1.20
2019-03-03T18:33:49.919Z,1.20
2019-03-03T18:36:21.891Z,1.10
2019-03-03T18:38:54.655Z,1.10
2019-03-03T18:41:28.442Z,1.10
2019-03-03T18:44:01.677Z,1.10
2019-03-03T18:46:35.839Z,1.10
2019-03-03T18:49:11.695Z,1.10
2019-03-03T18:51:46.084Z,1.00
2019-03-03T18:54:22.398Z,1.10
2019-03-03T18:56:54.782Z,1.10
2019-03-03T18:59:29.665Z,1.10
2019-03-03T19:02:03.166Z,1.10
2019-03-03T19:04:36.994Z,1.10
2019-03-03T19:07:08.971Z,1.10
2019-03-03T19:09:41.922Z,1.00
2019-03-03T19:12:12.200Z,1.00
2019-03-03T19:14:42.135Z,1.00
2019-03-03T19:17:12.039Z,0.90
2019-03-03T19:19:45.147Z,0.90
2019-03-03T19:22:37.755Z,0.90
2019-03-03T19:25:11.563Z,0.90
2019-03-03T19:27:44.803Z,0.90
2019-03-03T19:30:19.167Z,0.90
2019-03-03T19:32:55.235Z,0.90
2019-03-03T19:35:28.510Z,0.90
2019-03-03T19:38:01.311Z,0.90
2019-03-03T19:40:33.955Z,1.00
2019-03-03T19:43:08.615Z,0.90
2019-03-03T19:45:41.897Z,0.90
2019-03-03T19:48:16.063Z,0.90
2019-03-03T19:50:52.512Z,0.80
2019-03-03T19:53:24.926Z,0.90
2019-03-03T19:56:18.109Z,0.90
2019-03-03T19:58:47.868Z,0.90
2019-03-03T20:01:22.755Z,0.90
2019-03-03T20:03:56.571Z,0.90
2019-03-03T20:06:30.367Z,0.90
2019-03-03T20:09:03.618Z,0.90
2019-03-03T20:11:40.027Z,0.90
2019-03-03T20:14:13.531Z,0.90
2019-03-03T20:16:47.179Z,0.80
2019-03-03T20:19:19.719Z,0.90
2019-03-03T20:21:56.287Z,0.90
2019-03-03T20:24:33.983Z,0.90
2019-03-03T20:27:06.942Z,1.00
2019-03-03T20:29:40.749Z,1.00
2019-03-03T20:32:16.168Z,1.00
2019-03-03T20:34:52.995Z,0.90
2019-03-03T20:37:29.887Z,0.90
2019-03-03T20:40:06.992Z,0.80
2019-03-03T20:42:41.004Z,0.80
2019-03-03T20:45:16.471Z,0.80
2019-03-03T20:47:50.660Z,0.70
2019-03-03T20:50:25.602Z,0.70
2019-03-03T20:53:00.303Z,0.70
2019-03-03T20:55:33.638Z,0.70
2019-03-03T20:58:07.555Z,0.70
2019-03-03T21:00:42.175Z,0.70
2019-03-03T21:03:15.551Z,0.80
2019-03-03T21:05:49.472Z,0.80
2019-03-03T21:08:22.317Z,0.80
2019-03-03T21:10:56.298Z,0.80
2019-03-03T21:13:30.913Z,0.80
2019-03-03T21:16:06.914Z,0.70
2019-03-03T21:18:36.675Z,0.80
2019-03-03T21:21:10.854Z,0.80
2019-03-03T21:23:44.575Z,0.80
2019-03-03T21:26:18.562Z,0.80
2019-03-03T21:28:52.548Z,0.80
2019-03-03T21:31:26.827Z,0.80
2019-03-03T21:34:00.479Z,0.80
2019-03-03T21:36:33.631Z,0.80
2019-03-03T21:39:09.287Z,0.90
2019-03-03T21:41:41.867Z,0.80
2019-03-03T21:44:13.822Z,0.80
2019-03-03T21:46:43.663Z,0.70
2019-03-03T21:49:14.041Z,0.70
2019-03-03T21:51:44.004Z,0.70
2019-03-03T21:54:18.252Z,0.70
2019-03-03T21:56:50.888Z,0.70
2019-03-03T21:59:21.070Z,0.70
2019-03-03T22:01:50.733Z,0.70
2019-03-03T22:04:25.376Z,0.70
2019-03-03T22:06:59.560Z,0.80
2019-03-03T22:09:32.360Z,0.70
2019-03-03T22:12:03.492Z,0.70
2019-03-03T22:14:40.870Z,0.70
2019-03-03T22:17:16.111Z,0.70
2019-03-03T22:19:48.831Z,0.80
2019-03-03T22:22:22.463Z,0.80
2019-03-03T22:24:54.930Z,0.70
2019-03-03T22:27:27.682Z,0.70
2019-03-03T22:29:57.960Z,0.70
2019-03-03T22:32:31.361Z,0.60
2019-03-03T22:35:04.896Z,0.60
2019-03-03T22:37:38.406Z,0.60
2019-03-03T22:40:11.851Z,0.60
2019-03-03T22:42:45.411Z,0.60
2019-03-03T22:45:19.360Z,0.70
2019-03-03T22:47:53.378Z,0.70
2019-03-03T22:50:24.759Z,0.60
2019-03-03T22:52:54.755Z,0.60
2019-03-03T22:55:25.551Z,0.60
2019-03-03T22:57:56.399Z,0.60
2019-03-03T23:00:54.082Z,0.70
2019-03-03T23:03:42.528Z,0.60
2019-03-03T23:06:40.308Z,0.60
2019-03-03T23:09:51.039Z,0.60
2019-03-03T23:12:52.039Z,0.50
2019-03-03T23:15:45.543Z,0.50
2019-03-03T23:18:54.688Z,0.40
2019-03-03T23:21:50.903Z,0.40
2019-03-03T23:25:13.854Z,0.40
2019-03-03T23:27:50.224Z,0.50
2019-03-03T23:30:21.447Z,0.40
2019-03-03T23:32:53.583Z,0.40
2019-03-03T23:35:26.667Z,0.50
2019-03-03T23:37:56.384Z,0.50
2019-03-03T23:40:29.860Z,0.50
2019-03-03T23:43:02.728Z,0.40
2019-03-03T23:45:36.412Z,0.50
2019-03-03T23:48:10.284Z,0.50
2019-03-03T23:50:44.130Z,0.40
2019-03-03T23:53:18.735Z,0.40
2019-03-03T23:55:53.612Z,0.40
2019-03-03T23:58:26.055Z,0.50
